sensor_id;sensor_type;location;lat;lon;timestamp;P1;durP1;ratioP1;P2;durP2;ratioP2
73239;SDS011;61452;40.054;4.110;2023-05-07T00:00:33;1.17;;;0.70;;
73239;SDS011;61452;40.054;4.110;2023-05-07T00:05:35;1.25;;;0.60;;
73239;SDS011;61452;40.054;4.110;2023-05-07T00:10:39;1.15;;;0.70;;
73239;SDS011;61452;40.054;4.110;2023-05-07T00:15:41;1.48;;;0.82;;
73239;SDS011;61452;40.054;4.110;2023-05-07T00:20:43;1.08;;;0.85;;
73239;SDS011;61452;40.054;4.110;2023-05-07T00:25:45;1.77;;;0.57;;
73239;SDS011;61452;40.054;4.110;2023-05-07T00:30:47;0.90;;;0.70;;
73239;SDS011;61452;40.054;4.110;2023-05-07T00:35:49;1.25;;;0.80;;
73239;SDS011;61452;40.054;4.110;2023-05-07T00:40:51;1.35;;;0.70;;
73239;SDS011;61452;40.054;4.110;2023-05-07T00:45:54;1.35;;;0.65;;
73239;SDS011;61452;40.054;4.110;2023-05-07T00:50:56;0.95;;;0.70;;
73239;SDS011;61452;40.054;4.110;2023-05-07T00:55:59;2.08;;;0.80;;
73239;SDS011;61452;40.054;4.110;2023-05-07T01:06:04;1.10;;;0.70;;
73239;SDS011;61452;40.054;4.110;2023-05-07T01:11:09;0.82;;;0.60;;
73239;SDS011;61452;40.054;4.110;2023-05-07T01:16:12;1.13;;;0.60;;
73239;SDS011;61452;40.054;4.110;2023-05-07T01:21:15;1.00;;;0.60;;
73239;SDS011;61452;40.054;4.110;2023-05-07T01:26:19;0.85;;;0.75;;
73239;SDS011;61452;40.054;4.110;2023-05-07T01:31:23;1.35;;;0.80;;
73239;SDS011;61452;40.054;4.110;2023-05-07T01:36:26;0.80;;;0.63;;
73239;SDS011;61452;40.054;4.110;2023-05-07T01:41:31;0.77;;;0.52;;
73239;SDS011;61452;40.054;4.110;2023-05-07T01:46:34;1.38;;;0.70;;
73239;SDS011;61452;40.054;4.110;2023-05-07T01:51:37;1.05;;;0.43;;
73239;SDS011;61452;40.054;4.110;2023-05-07T01:56:39;1.10;;;0.57;;
73239;SDS011;61452;40.054;4.110;2023-05-07T02:01:41;1.10;;;0.60;;
73239;SDS011;61452;40.054;4.110;2023-05-07T02:06:44;0.80;;;0.60;;
73239;SDS011;61452;40.054;4.110;2023-05-07T02:11:47;0.98;;;0.63;;
73239;SDS011;61452;40.054;4.110;2023-05-07T02:16:52;0.85;;;0.60;;
73239;SDS011;61452;40.054;4.110;2023-05-07T02:21:54;1.30;;;0.70;;
73239;SDS011;61452;40.054;4.110;2023-05-07T02:26:57;1.00;;;0.82;;
73239;SDS011;61452;40.054;4.110;2023-05-07T02:31:59;1.10;;;0.60;;
73239;SDS011;61452;40.054;4.110;2023-05-07T02:37:01;1.00;;;0.60;;
73239;SDS011;61452;40.054;4.110;2023-05-07T02:42:04;1.45;;;0.70;;
73239;SDS011;61452;40.054;4.110;2023-05-07T02:47:06;1.55;;;0.70;;
73239;SDS011;61452;40.054;4.110;2023-05-07T02:52:11;1.30;;;0.73;;
73239;SDS011;61452;40.054;4.110;2023-05-07T02:57:13;0.85;;;0.57;;
73239;SDS011;61452;40.054;4.110;2023-05-07T03:02:16;2.00;;;0.75;;
73239;SDS011;61452;40.054;4.110;2023-05-07T03:07:18;0.93;;;0.70;;
73239;SDS011;61452;40.054;4.110;2023-05-07T03:12:20;1.10;;;0.50;;
73239;SDS011;61452;40.054;4.110;2023-05-07T03:17:23;1.20;;;0.50;;
73239;SDS011;61452;40.054;4.110;2023-05-07T03:22:25;1.15;;;0.77;;
73239;SDS011;61452;40.054;4.110;2023-05-07T03:27:27;1.38;;;0.57;;
73239;SDS011;61452;40.054;4.110;2023-05-07T03:32:29;0.93;;;0.52;;
73239;SDS011;61452;40.054;4.110;2023-05-07T03:37:32;1.05;;;0.60;;
73239;SDS011;61452;40.054;4.110;2023-05-07T03:42:34;0.90;;;0.70;;
73239;SDS011;61452;40.054;4.110;2023-05-07T03:47:36;2.13;;;0.55;;
73239;SDS011;61452;40.054;4.110;2023-05-07T03:57:43;1.33;;;0.63;;
73239;SDS011;61452;40.054;4.110;2023-05-07T04:02:46;1.00;;;0.50;;
73239;SDS011;61452;40.054;4.110;2023-05-07T04:07:52;1.33;;;0.77;;
73239;SDS011;61452;40.054;4.110;2023-05-07T04:13:00;1.02;;;0.80;;
73239;SDS011;61452;40.054;4.110;2023-05-07T04:18:03;0.70;;;0.57;;
73239;SDS011;61452;40.054;4.110;2023-05-07T04:23:06;0.80;;;0.45;;
73239;SDS011;61452;40.054;4.110;2023-05-07T04:28:09;0.65;;;0.50;;
73239;SDS011;61452;40.054;4.110;2023-05-07T04:33:14;1.65;;;0.50;;
73239;SDS011;61452;40.054;4.110;2023-05-07T04:38:19;0.95;;;0.60;;
73239;SDS011;61452;40.054;4.110;2023-05-07T04:43:24;1.33;;;0.60;;
73239;SDS011;61452;40.054;4.110;2023-05-07T04:48:26;1.25;;;0.50;;
73239;SDS011;61452;40.054;4.110;2023-05-07T04:53:29;1.83;;;0.63;;
73239;SDS011;61452;40.054;4.110;2023-05-07T04:58:32;0.52;;;0.43;;
73239;SDS011;61452;40.054;4.110;2023-05-07T05:03:34;0.60;;;0.47;;
73239;SDS011;61452;40.054;4.110;2023-05-07T05:08:36;1.13;;;0.60;;
73239;SDS011;61452;40.054;4.110;2023-05-07T05:13:39;1.25;;;0.73;;
73239;SDS011;61452;40.054;4.110;2023-05-07T05:18:46;0.90;;;0.40;;
73239;SDS011;61452;40.054;4.110;2023-05-07T05:23:51;0.88;;;0.52;;
73239;SDS011;61452;40.054;4.110;2023-05-07T05:28:56;0.95;;;0.70;;
73239;SDS011;61452;40.054;4.110;2023-05-07T05:34:02;0.98;;;0.50;;
73239;SDS011;61452;40.054;4.110;2023-05-07T05:39:04;1.15;;;0.50;;
73239;SDS011;61452;40.054;4.110;2023-05-07T05:44:06;2.20;;;0.70;;
73239;SDS011;61452;40.054;4.110;2023-05-07T05:49:08;1.23;;;0.60;;
73239;SDS011;61452;40.054;4.110;2023-05-07T05:54:12;0.68;;;0.50;;
73239;SDS011;61452;40.054;4.110;2023-05-07T05:59:14;0.47;;;0.40;;
73239;SDS011;61452;40.054;4.110;2023-05-07T06:04:17;0.50;;;0.40;;
73239;SDS011;61452;40.054;4.110;2023-05-07T06:09:19;0.90;;;0.52;;
73239;SDS011;61452;40.054;4.110;2023-05-07T06:14:21;1.45;;;0.60;;
73239;SDS011;61452;40.054;4.110;2023-05-07T06:19:24;1.33;;;0.73;;
73239;SDS011;61452;40.054;4.110;2023-05-07T06:24:28;0.82;;;0.40;;
73239;SDS011;61452;40.054;4.110;2023-05-07T06:29:31;1.50;;;0.65;;
73239;SDS011;61452;40.054;4.110;2023-05-07T06:34:38;0.85;;;0.50;;
73239;SDS011;61452;40.054;4.110;2023-05-07T06:39:41;1.65;;;0.57;;
73239;SDS011;61452;40.054;4.110;2023-05-07T06:44:43;0.80;;;0.47;;
73239;SDS011;61452;40.054;4.110;2023-05-07T06:49:48;1.05;;;0.50;;
73239;SDS011;61452;40.054;4.110;2023-05-07T06:54:53;0.63;;;0.40;;
73239;SDS011;61452;40.054;4.110;2023-05-07T06:59:57;0.70;;;0.47;;
73239;SDS011;61452;40.054;4.110;2023-05-07T07:05:00;1.80;;;0.50;;
73239;SDS011;61452;40.054;4.110;2023-05-07T07:10:02;1.65;;;0.55;;
73239;SDS011;61452;40.054;4.110;2023-05-07T07:15:06;1.10;;;0.60;;
73239;SDS011;61452;40.054;4.110;2023-05-07T07:20:09;0.60;;;0.40;;
73239;SDS011;61452;40.054;4.110;2023-05-07T07:25:13;1.00;;;0.52;;
73239;SDS011;61452;40.054;4.110;2023-05-07T07:30:16;0.90;;;0.60;;
73239;SDS011;61452;40.054;4.110;2023-05-07T07:35:21;0.80;;;0.40;;
73239;SDS011;61452;40.054;4.110;2023-05-07T07:40:24;0.77;;;0.60;;
73239;SDS011;61452;40.054;4.110;2023-05-07T07:45:26;1.05;;;0.50;;
73239;SDS011;61452;40.054;4.110;2023-05-07T07:50:29;0.60;;;0.47;;
73239;SDS011;61452;40.054;4.110;2023-05-07T07:55:47;0.50;;;0.40;;
73239;SDS011;61452;40.054;4.110;2023-05-07T08:00:52;0.45;;;0.32;;
73239;SDS011;61452;40.054;4.110;2023-05-07T08:05:58;1.00;;;0.40;;
73239;SDS011;61452;40.054;4.110;2023-05-07T08:11:01;0.80;;;0.40;;
73239;SDS011;61452;40.054;4.110;2023-05-07T08:16:06;1.35;;;0.50;;
73239;SDS011;61452;40.054;4.110;2023-05-07T08:21:10;0.75;;;0.50;;
73239;SDS011;61452;40.054;4.110;2023-05-07T08:26:13;1.10;;;0.50;;
73239;SDS011;61452;40.054;4.110;2023-05-07T08:31:16;0.70;;;0.50;;
73239;SDS011;61452;40.054;4.110;2023-05-07T08:36:19;0.70;;;0.45;;
73239;SDS011;61452;40.054;4.110;2023-05-07T08:41:21;0.88;;;0.50;;
73239;SDS011;61452;40.054;4.110;2023-05-07T08:46:24;1.10;;;0.40;;
73239;SDS011;61452;40.054;4.110;2023-05-07T08:51:30;0.80;;;0.50;;
73239;SDS011;61452;40.054;4.110;2023-05-07T08:56:33;0.90;;;0.43;;
73239;SDS011;61452;40.054;4.110;2023-05-07T09:01:36;1.15;;;0.50;;
73239;SDS011;61452;40.054;4.110;2023-05-07T09:06:39;1.67;;;0.40;;
73239;SDS011;61452;40.054;4.110;2023-05-07T09:11:46;0.68;;;0.30;;
73239;SDS011;61452;40.054;4.110;2023-05-07T09:16:54;1.73;;;0.60;;
73239;SDS011;61452;40.054;4.110;2023-05-07T09:22:03;0.70;;;0.45;;
73239;SDS011;61452;40.054;4.110;2023-05-07T09:27:20;1.20;;;0.50;;
73239;SDS011;61452;40.054;4.110;2023-05-07T09:32:22;1.10;;;0.60;;
73239;SDS011;61452;40.054;4.110;2023-05-07T09:37:25;1.30;;;0.52;;
73239;SDS011;61452;40.054;4.110;2023-05-07T09:42:28;1.13;;;0.47;;
73239;SDS011;61452;40.054;4.110;2023-05-07T09:47:34;1.33;;;0.50;;
73239;SDS011;61452;40.054;4.110;2023-05-07T09:52:41;0.90;;;0.50;;
73239;SDS011;61452;40.054;4.110;2023-05-07T09:57:45;0.75;;;0.45;;
73239;SDS011;61452;40.054;4.110;2023-05-07T10:02:49;0.75;;;0.60;;
73239;SDS011;61452;40.054;4.110;2023-05-07T10:08:05;0.57;;;0.40;;
73239;SDS011;61452;40.054;4.110;2023-05-07T10:13:10;0.57;;;0.40;;
73239;SDS011;61452;40.054;4.110;2023-05-07T10:18:20;0.98;;;0.50;;
73239;SDS011;61452;40.054;4.110;2023-05-07T10:23:26;1.77;;;0.43;;
73239;SDS011;61452;40.054;4.110;2023-05-07T10:28:33;0.70;;;0.40;;
73239;SDS011;61452;40.054;4.110;2023-05-07T10:33:47;0.50;;;0.40;;
73239;SDS011;61452;40.054;4.110;2023-05-07T10:38:55;0.95;;;0.40;;
73239;SDS011;61452;40.054;4.110;2023-05-07T10:43:58;1.10;;;0.52;;
73239;SDS011;61452;40.054;4.110;2023-05-07T10:49:06;1.05;;;0.50;;
73239;SDS011;61452;40.054;4.110;2023-05-07T10:54:18;0.70;;;0.50;;
73239;SDS011;61452;40.054;4.110;2023-05-07T10:59:33;0.47;;;0.35;;
73239;SDS011;61452;40.054;4.110;2023-05-07T11:15:57;1.80;;;0.68;;
73239;SDS011;61452;40.054;4.110;2023-05-07T11:21:09;0.40;;;0.40;;
73239;SDS011;61452;40.054;4.110;2023-05-07T11:26:23;0.50;;;0.40;;
73239;SDS011;61452;40.054;4.110;2023-05-07T11:31:26;0.60;;;0.30;;
73239;SDS011;61452;40.054;4.110;2023-05-07T11:36:33;0.60;;;0.40;;
73239;SDS011;61452;40.054;4.110;2023-05-07T11:41:38;1.45;;;0.50;;
73239;SDS011;61452;40.054;4.110;2023-05-07T11:46:42;1.15;;;0.32;;
73239;SDS011;61452;40.054;4.110;2023-05-07T11:51:45;0.73;;;0.40;;
73239;SDS011;61452;40.054;4.110;2023-05-07T11:56:48;1.38;;;0.50;;
73239;SDS011;61452;40.054;4.110;2023-05-07T12:01:50;1.00;;;0.43;;
73239;SDS011;61452;40.054;4.110;2023-05-07T12:06:56;0.73;;;0.40;;
73239;SDS011;61452;40.054;4.110;2023-05-07T12:12:02;1.00;;;0.40;;
73239;SDS011;61452;40.054;4.110;2023-05-07T12:17:05;1.35;;;0.40;;
73239;SDS011;61452;40.054;4.110;2023-05-07T12:22:09;0.68;;;0.40;;
73239;SDS011;61452;40.054;4.110;2023-05-07T12:27:12;0.57;;;0.35;;
73239;SDS011;61452;40.054;4.110;2023-05-07T12:32:19;1.40;;;0.50;;
73239;SDS011;61452;40.054;4.110;2023-05-07T12:37:23;0.60;;;0.43;;
73239;SDS011;61452;40.054;4.110;2023-05-07T12:42:26;0.82;;;0.40;;
73239;SDS011;61452;40.054;4.110;2023-05-07T12:47:34;0.95;;;0.47;;
73239;SDS011;61452;40.054;4.110;2023-05-07T12:52:36;0.60;;;0.30;;
73239;SDS011;61452;40.054;4.110;2023-05-07T12:57:39;0.55;;;0.32;;
73239;SDS011;61452;40.054;4.110;2023-05-07T13:02:51;0.90;;;0.50;;
73239;SDS011;61452;40.054;4.110;2023-05-07T13:07:56;0.40;;;0.30;;
73239;SDS011;61452;40.054;4.110;2023-05-07T13:12:58;0.70;;;0.40;;
73239;SDS011;61452;40.054;4.110;2023-05-07T13:18:00;1.58;;;0.40;;
73239;SDS011;61452;40.054;4.110;2023-05-07T13:23:03;1.17;;;0.30;;
73239;SDS011;61452;40.054;4.110;2023-05-07T13:28:06;0.88;;;0.40;;
73239;SDS011;61452;40.054;4.110;2023-05-07T13:33:12;0.80;;;0.45;;
73239;SDS011;61452;40.054;4.110;2023-05-07T13:38:14;0.70;;;0.45;;
73239;SDS011;61452;40.054;4.110;2023-05-07T13:43:17;0.95;;;0.40;;
73239;SDS011;61452;40.054;4.110;2023-05-07T13:48:20;1.00;;;0.30;;
73239;SDS011;61452;40.054;4.110;2023-05-07T13:53:22;0.82;;;0.43;;
73239;SDS011;61452;40.054;4.110;2023-05-07T13:58:24;0.70;;;0.50;;
73239;SDS011;61452;40.054;4.110;2023-05-07T14:03:26;0.88;;;0.50;;
73239;SDS011;61452;40.054;4.110;2023-05-07T14:08:29;0.93;;;0.45;;
73239;SDS011;61452;40.054;4.110;2023-05-07T14:13:32;0.60;;;0.30;;
73239;SDS011;61452;40.054;4.110;2023-05-07T14:18:36;0.70;;;0.40;;
73239;SDS011;61452;40.054;4.110;2023-05-07T14:23:38;1.50;;;0.40;;
73239;SDS011;61452;40.054;4.110;2023-05-07T14:28:40;0.50;;;0.40;;
73239;SDS011;61452;40.054;4.110;2023-05-07T14:33:47;0.55;;;0.40;;
73239;SDS011;61452;40.054;4.110;2023-05-07T14:38:52;0.95;;;0.30;;
73239;SDS011;61452;40.054;4.110;2023-05-07T14:43:58;0.93;;;0.43;;
73239;SDS011;61452;40.054;4.110;2023-05-07T14:49:01;0.70;;;0.40;;
73239;SDS011;61452;40.054;4.110;2023-05-07T14:54:03;0.40;;;0.30;;
73239;SDS011;61452;40.054;4.110;2023-05-07T14:59:06;0.68;;;0.40;;
73239;SDS011;61452;40.054;4.110;2023-05-07T15:04:08;0.55;;;0.40;;
73239;SDS011;61452;40.054;4.110;2023-05-07T15:09:11;0.95;;;0.40;;
73239;SDS011;61452;40.054;4.110;2023-05-07T15:14:13;0.77;;;0.40;;
73239;SDS011;61452;40.054;4.110;2023-05-07T15:19:16;0.65;;;0.35;;
73239;SDS011;61452;40.054;4.110;2023-05-07T15:24:18;1.55;;;0.50;;
73239;SDS011;61452;40.054;4.110;2023-05-07T15:29:20;1.05;;;0.50;;
73239;SDS011;61452;40.054;4.110;2023-05-07T15:34:22;0.90;;;0.40;;
73239;SDS011;61452;40.054;4.110;2023-05-07T15:39:25;0.85;;;0.50;;
73239;SDS011;61452;40.054;4.110;2023-05-07T15:44:27;1.77;;;0.40;;
73239;SDS011;61452;40.054;4.110;2023-05-07T15:49:33;0.43;;;0.30;;
73239;SDS011;61452;40.054;4.110;2023-05-07T15:54:36;0.80;;;0.40;;
73239;SDS011;61452;40.054;4.110;2023-05-07T15:59:39;1.13;;;0.45;;
73239;SDS011;61452;40.054;4.110;2023-05-07T16:04:41;0.95;;;0.30;;
73239;SDS011;61452;40.054;4.110;2023-05-07T16:09:43;1.08;;;0.40;;
73239;SDS011;61452;40.054;4.110;2023-05-07T16:14:45;0.70;;;0.50;;
73239;SDS011;61452;40.054;4.110;2023-05-07T16:19:49;0.60;;;0.40;;
73239;SDS011;61452;40.054;4.110;2023-05-07T16:24:52;1.70;;;0.60;;
73239;SDS011;61452;40.054;4.110;2023-05-07T16:29:54;1.20;;;0.60;;
73239;SDS011;61452;40.054;4.110;2023-05-07T16:34:56;1.73;;;0.50;;
73239;SDS011;61452;40.054;4.110;2023-05-07T16:40:02;0.95;;;0.68;;
73239;SDS011;61452;40.054;4.110;2023-05-07T16:45:08;0.38;;;0.38;;
73239;SDS011;61452;40.054;4.110;2023-05-07T16:50:11;0.93;;;0.45;;
73239;SDS011;61452;40.054;4.110;2023-05-07T16:55:13;1.27;;;0.40;;
73239;SDS011;61452;40.054;4.110;2023-05-07T17:00:16;0.50;;;0.47;;
73239;SDS011;61452;40.054;4.110;2023-05-07T17:05:18;0.75;;;0.45;;
73239;SDS011;61452;40.054;4.110;2023-05-07T17:10:21;1.63;;;0.60;;
73239;SDS011;61452;40.054;4.110;2023-05-07T17:15:23;1.67;;;0.93;;
73239;SDS011;61452;40.054;4.110;2023-05-07T17:20:26;1.48;;;0.82;;
73239;SDS011;61452;40.054;4.110;2023-05-07T17:25:30;1.65;;;0.70;;
73239;SDS011;61452;40.054;4.110;2023-05-07T17:30:33;0.70;;;0.50;;
73239;SDS011;61452;40.054;4.110;2023-05-07T17:35:35;2.22;;;0.90;;
73239;SDS011;61452;40.054;4.110;2023-05-07T17:40:37;1.38;;;0.60;;
73239;SDS011;61452;40.054;4.110;2023-05-07T17:45:39;1.42;;;0.70;;
73239;SDS011;61452;40.054;4.110;2023-05-07T17:50:42;2.35;;;0.80;;
73239;SDS011;61452;40.054;4.110;2023-05-07T17:55:47;1.88;;;0.77;;
73239;SDS011;61452;40.054;4.110;2023-05-07T18:00:50;1.33;;;0.77;;
73239;SDS011;61452;40.054;4.110;2023-05-07T18:05:52;2.55;;;0.90;;
73239;SDS011;61452;40.054;4.110;2023-05-07T18:10:54;2.58;;;1.00;;
73239;SDS011;61452;40.054;4.110;2023-05-07T18:15:56;1.92;;;0.70;;
73239;SDS011;61452;40.054;4.110;2023-05-07T18:20:58;1.45;;;1.08;;
73239;SDS011;61452;40.054;4.110;2023-05-07T18:26:01;2.45;;;1.30;;
73239;SDS011;61452;40.054;4.110;2023-05-07T18:31:06;2.13;;;1.02;;
73239;SDS011;61452;40.054;4.110;2023-05-07T18:36:08;1.35;;;0.80;;
73239;SDS011;61452;40.054;4.110;2023-05-07T18:41:10;2.22;;;1.20;;
73239;SDS011;61452;40.054;4.110;2023-05-07T18:46:12;1.85;;;0.95;;
73239;SDS011;61452;40.054;4.110;2023-05-07T18:51:14;2.13;;;1.25;;
73239;SDS011;61452;40.054;4.110;2023-05-07T18:56:16;2.00;;;0.98;;
73239;SDS011;61452;40.054;4.110;2023-05-07T19:01:19;1.50;;;0.90;;
73239;SDS011;61452;40.054;4.110;2023-05-07T19:06:21;2.50;;;1.08;;
73239;SDS011;61452;40.054;4.110;2023-05-07T19:11:23;3.95;;;1.17;;
73239;SDS011;61452;40.054;4.110;2023-05-07T19:16:25;2.92;;;1.10;;
73239;SDS011;61452;40.054;4.110;2023-05-07T19:21:27;1.60;;;0.98;;
73239;SDS011;61452;40.054;4.110;2023-05-07T19:26:29;2.30;;;1.10;;
73239;SDS011;61452;40.054;4.110;2023-05-07T19:31:31;3.53;;;1.20;;
73239;SDS011;61452;40.054;4.110;2023-05-07T19:36:34;1.50;;;1.08;;
73239;SDS011;61452;40.054;4.110;2023-05-07T19:41:36;2.20;;;1.02;;
73239;SDS011;61452;40.054;4.110;2023-05-07T19:46:38;2.03;;;1.02;;
73239;SDS011;61452;40.054;4.110;2023-05-07T19:51:45;2.15;;;0.90;;
73239;SDS011;61452;40.054;4.110;2023-05-07T19:56:47;4.05;;;1.10;;
73239;SDS011;61452;40.054;4.110;2023-05-07T20:01:49;2.92;;;1.00;;
73239;SDS011;61452;40.054;4.110;2023-05-07T20:06:51;2.35;;;1.00;;
73239;SDS011;61452;40.054;4.110;2023-05-07T20:11:53;2.08;;;1.17;;
73239;SDS011;61452;40.054;4.110;2023-05-07T20:16:56;1.80;;;0.98;;
73239;SDS011;61452;40.054;4.110;2023-05-07T20:21:58;3.63;;;1.30;;
73239;SDS011;61452;40.054;4.110;2023-05-07T20:27:00;1.27;;;0.95;;
73239;SDS011;61452;40.054;4.110;2023-05-07T20:32:03;2.42;;;1.20;;
73239;SDS011;61452;40.054;4.110;2023-05-07T20:37:06;1.88;;;1.02;;
73239;SDS011;61452;40.054;4.110;2023-05-07T20:42:12;2.05;;;1.00;;
73239;SDS011;61452;40.054;4.110;2023-05-07T20:47:14;3.50;;;1.45;;
73239;SDS011;61452;40.054;4.110;2023-05-07T20:52:17;2.60;;;1.00;;
73239;SDS011;61452;40.054;4.110;2023-05-07T20:57:19;2.42;;;0.90;;
73239;SDS011;61452;40.054;4.110;2023-05-07T21:02:22;2.85;;;1.20;;
73239;SDS011;61452;40.054;4.110;2023-05-07T21:07:24;2.45;;;1.13;;
73239;SDS011;61452;40.054;4.110;2023-05-07T21:12:26;2.60;;;1.23;;
73239;SDS011;61452;40.054;4.110;2023-05-07T21:17:28;2.55;;;1.10;;
73239;SDS011;61452;40.054;4.110;2023-05-07T21:22:32;3.10;;;1.00;;
73239;SDS011;61452;40.054;4.110;2023-05-07T21:27:34;1.60;;;0.80;;
73239;SDS011;61452;40.054;4.110;2023-05-07T21:32:36;1.70;;;0.93;;
73239;SDS011;61452;40.054;4.110;2023-05-07T21:37:39;1.83;;;0.98;;
73239;SDS011;61452;40.054;4.110;2023-05-07T21:42:41;2.45;;;0.98;;
73239;SDS011;61452;40.054;4.110;2023-05-07T21:47:43;1.48;;;0.90;;
73239;SDS011;61452;40.054;4.110;2023-05-07T21:52:45;1.40;;;0.80;;
73239;SDS011;61452;40.054;4.110;2023-05-07T21:57:47;2.47;;;1.00;;
73239;SDS011;61452;40.054;4.110;2023-05-07T22:03:02;2.50;;;1.00;;
73239;SDS011;61452;40.054;4.110;2023-05-07T22:08:04;1.33;;;0.80;;
73239;SDS011;61452;40.054;4.110;2023-05-07T22:13:06;1.92;;;0.90;;
73239;SDS011;61452;40.054;4.110;2023-05-07T22:18:09;2.38;;;0.80;;
73239;SDS011;61452;40.054;4.110;2023-05-07T22:23:11;1.20;;;0.73;;
73239;SDS011;61452;40.054;4.110;2023-05-07T22:28:13;1.05;;;0.80;;
73239;SDS011;61452;40.054;4.110;2023-05-07T22:33:16;2.65;;;1.20;;
73239;SDS011;61452;40.054;4.110;2023-05-07T22:38:18;2.22;;;0.70;;
73239;SDS011;61452;40.054;4.110;2023-05-07T22:43:20;1.02;;;0.77;;
73239;SDS011;61452;40.054;4.110;2023-05-07T22:48:23;2.65;;;0.95;;
73239;SDS011;61452;40.054;4.110;2023-05-07T22:53:25;1.88;;;1.05;;
73239;SDS011;61452;40.054;4.110;2023-05-07T22:58:27;2.50;;;0.80;;
73239;SDS011;61452;40.054;4.110;2023-05-07T23:03:30;1.48;;;0.68;;
73239;SDS011;61452;40.054;4.110;2023-05-07T23:08:33;1.60;;;0.70;;
73239;SDS011;61452;40.054;4.110;2023-05-07T23:13:36;2.55;;;0.90;;
73239;SDS011;61452;40.054;4.110;2023-05-07T23:18:38;2.70;;;0.85;;
73239;SDS011;61452;40.054;4.110;2023-05-07T23:23:41;1.10;;;0.70;;
73239;SDS011;61452;40.054;4.110;2023-05-07T23:28:44;1.48;;;0.90;;
73239;SDS011;61452;40.054;4.110;2023-05-07T23:33:46;2.80;;;0.90;;
73239;SDS011;61452;40.054;4.110;2023-05-07T23:38:48;1.30;;;0.80;;
73239;SDS011;61452;40.054;4.110;2023-05-07T23:43:51;1.88;;;0.93;;
73239;SDS011;61452;40.054;4.110;2023-05-07T23:48:53;3.58;;;1.20;;
73239;SDS011;61452;40.054;4.110;2023-05-07T23:53:55;2.05;;;0.77;;
73239;SDS011;61452;40.054;4.110;2023-05-07T23:58:57;1.42;;;0.70;;
